sensor_id;sensor_type;location;lat;lon;timestamp;P1;durP1;ratioP1;P2;durP2;ratioP2
73585;SDS011;61865;50.232;18.614;2023-09-19T00:01:14;15.52;;;11.60;;
73585;SDS011;61865;50.232;18.614;2023-09-19T00:03:41;19.63;;;12.68;;
73585;SDS011;61865;50.232;18.614;2023-09-19T00:06:04;19.17;;;12.35;;
73585;SDS011;61865;50.232;18.614;2023-09-19T00:08:27;20.10;;;12.38;;
73585;SDS011;61865;50.232;18.614;2023-09-19T00:10:50;19.40;;;12.13;;
73585;SDS011;61865;50.232;18.614;2023-09-19T00:13:13;18.70;;;13.15;;
73585;SDS011;61865;50.232;18.614;2023-09-19T00:15:36;17.00;;;10.85;;
73585;SDS011;61865;50.232;18.614;2023-09-19T00:17:59;16.50;;;12.38;;
73585;SDS011;61865;50.232;18.614;2023-09-19T00:20:23;15.00;;;11.85;;
73585;SDS011;61865;50.232;18.614;2023-09-19T00:22:45;17.23;;;12.63;;
73585;SDS011;61865;50.232;18.614;2023-09-19T00:25:08;17.75;;;13.18;;
73585;SDS011;61865;50.232;18.614;2023-09-19T00:27:31;15.20;;;12.52;;
73585;SDS011;61865;50.232;18.614;2023-09-19T00:29:55;18.92;;;12.25;;
73585;SDS011;61865;50.232;18.614;2023-09-19T00:32:17;18.05;;;12.48;;
73585;SDS011;61865;50.232;18.614;2023-09-19T00:34:39;16.35;;;12.48;;
73585;SDS011;61865;50.232;18.614;2023-09-19T00:37:04;19.08;;;12.57;;
73585;SDS011;61865;50.232;18.614;2023-09-19T00:39:26;17.17;;;12.07;;
73585;SDS011;61865;50.232;18.614;2023-09-19T00:41:51;14.63;;;11.15;;
73585;SDS011;61865;50.232;18.614;2023-09-19T00:44:14;17.98;;;12.20;;
73585;SDS011;61865;50.232;18.614;2023-09-19T00:46:37;15.60;;;12.70;;
73585;SDS011;61865;50.232;18.614;2023-09-19T00:49:00;15.38;;;11.32;;
73585;SDS011;61865;50.232;18.614;2023-09-19T00:51:23;14.60;;;11.85;;
73585;SDS011;61865;50.232;18.614;2023-09-19T00:53:47;17.40;;;12.23;;
73585;SDS011;61865;50.232;18.614;2023-09-19T00:56:09;20.75;;;11.88;;
73585;SDS011;61865;50.232;18.614;2023-09-19T00:58:32;16.23;;;12.60;;
73585;SDS011;61865;50.232;18.614;2023-09-19T01:00:55;18.95;;;13.82;;
73585;SDS011;61865;50.232;18.614;2023-09-19T01:03:17;15.85;;;13.38;;
73585;SDS011;61865;50.232;18.614;2023-09-19T01:05:40;16.52;;;12.63;;
73585;SDS011;61865;50.232;18.614;2023-09-19T01:08:02;19.10;;;13.40;;
73585;SDS011;61865;50.232;18.614;2023-09-19T01:10:26;18.05;;;12.75;;
73585;SDS011;61865;50.232;18.614;2023-09-19T01:12:52;18.73;;;13.35;;
73585;SDS011;61865;50.232;18.614;2023-09-19T01:15:19;16.73;;;12.65;;
73585;SDS011;61865;50.232;18.614;2023-09-19T01:17:45;18.13;;;12.45;;
73585;SDS011;61865;50.232;18.614;2023-09-19T01:20:15;15.82;;;12.57;;
73585;SDS011;61865;50.232;18.614;2023-09-19T01:22:42;16.17;;;12.85;;
73585;SDS011;61865;50.232;18.614;2023-09-19T01:25:14;16.10;;;12.40;;
73585;SDS011;61865;50.232;18.614;2023-09-19T01:27:52;19.45;;;12.88;;
73585;SDS011;61865;50.232;18.614;2023-09-19T01:30:17;16.30;;;12.63;;
73585;SDS011;61865;50.232;18.614;2023-09-19T01:32:42;17.33;;;12.85;;
73585;SDS011;61865;50.232;18.614;2023-09-19T01:35:06;25.40;;;13.55;;
73585;SDS011;61865;50.232;18.614;2023-09-19T01:37:32;20.52;;;13.63;;
73585;SDS011;61865;50.232;18.614;2023-09-19T01:39:56;17.60;;;14.10;;
73585;SDS011;61865;50.232;18.614;2023-09-19T01:42:31;19.00;;;13.77;;
73585;SDS011;61865;50.232;18.614;2023-09-19T01:44:57;22.98;;;14.10;;
73585;SDS011;61865;50.232;18.614;2023-09-19T01:47:26;18.60;;;13.32;;
73585;SDS011;61865;50.232;18.614;2023-09-19T01:49:50;16.38;;;12.75;;
73585;SDS011;61865;50.232;18.614;2023-09-19T01:52:16;18.20;;;12.65;;
73585;SDS011;61865;50.232;18.614;2023-09-19T01:54:41;14.35;;;11.63;;
73585;SDS011;61865;50.232;18.614;2023-09-19T01:57:09;18.65;;;12.85;;
73585;SDS011;61865;50.232;18.614;2023-09-19T01:59:37;18.02;;;14.90;;
73585;SDS011;61865;50.232;18.614;2023-09-19T02:02:03;24.25;;;15.00;;
73585;SDS011;61865;50.232;18.614;2023-09-19T02:04:27;20.25;;;13.98;;
73585;SDS011;61865;50.232;18.614;2023-09-19T02:06:49;21.60;;;15.45;;
73585;SDS011;61865;50.232;18.614;2023-09-19T02:09:12;20.90;;;12.98;;
73585;SDS011;61865;50.232;18.614;2023-09-19T02:11:34;19.33;;;13.48;;
73585;SDS011;61865;50.232;18.614;2023-09-19T02:13:57;20.67;;;12.98;;
73585;SDS011;61865;50.232;18.614;2023-09-19T02:16:19;17.75;;;13.77;;
73585;SDS011;61865;50.232;18.614;2023-09-19T02:18:41;17.27;;;13.00;;
73585;SDS011;61865;50.232;18.614;2023-09-19T02:21:05;23.88;;;14.65;;
73585;SDS011;61865;50.232;18.614;2023-09-19T02:23:30;38.50;;;18.58;;
73585;SDS011;61865;50.232;18.614;2023-09-19T02:25:53;19.63;;;14.85;;
73585;SDS011;61865;50.232;18.614;2023-09-19T02:28:17;18.77;;;14.32;;
73585;SDS011;61865;50.232;18.614;2023-09-19T02:30:39;16.52;;;13.13;;
73585;SDS011;61865;50.232;18.614;2023-09-19T02:33:01;15.02;;;12.55;;
73585;SDS011;61865;50.232;18.614;2023-09-19T02:35:24;18.55;;;13.07;;
73585;SDS011;61865;50.232;18.614;2023-09-19T02:37:50;20.17;;;13.32;;
73585;SDS011;61865;50.232;18.614;2023-09-19T02:40:12;17.52;;;12.73;;
73585;SDS011;61865;50.232;18.614;2023-09-19T02:42:39;17.58;;;13.07;;
73585;SDS011;61865;50.232;18.614;2023-09-19T02:45:09;18.10;;;11.50;;
73585;SDS011;61865;50.232;18.614;2023-09-19T02:47:31;15.43;;;12.15;;
73585;SDS011;61865;50.232;18.614;2023-09-19T02:49:55;16.25;;;12.75;;
73585;SDS011;61865;50.232;18.614;2023-09-19T02:52:17;24.02;;;13.35;;
73585;SDS011;61865;50.232;18.614;2023-09-19T02:54:41;17.85;;;12.73;;
73585;SDS011;61865;50.232;18.614;2023-09-19T02:57:05;16.90;;;11.95;;
73585;SDS011;61865;50.232;18.614;2023-09-19T02:59:26;20.10;;;13.10;;
73585;SDS011;61865;50.232;18.614;2023-09-19T03:01:50;16.50;;;12.02;;
73585;SDS011;61865;50.232;18.614;2023-09-19T03:04:14;18.65;;;12.85;;
73585;SDS011;61865;50.232;18.614;2023-09-19T03:06:39;17.52;;;12.50;;
73585;SDS011;61865;50.232;18.614;2023-09-19T03:09:02;19.33;;;13.40;;
73585;SDS011;61865;50.232;18.614;2023-09-19T03:11:27;25.55;;;15.02;;
73585;SDS011;61865;50.232;18.614;2023-09-19T03:13:50;21.80;;;15.05;;
73585;SDS011;61865;50.232;18.614;2023-09-19T03:16:13;23.10;;;15.38;;
73585;SDS011;61865;50.232;18.614;2023-09-19T03:18:35;18.58;;;14.38;;
73585;SDS011;61865;50.232;18.614;2023-09-19T03:20:57;20.60;;;13.95;;
73585;SDS011;61865;50.232;18.614;2023-09-19T03:23:21;19.52;;;14.50;;
73585;SDS011;61865;50.232;18.614;2023-09-19T03:25:43;18.13;;;14.50;;
73585;SDS011;61865;50.232;18.614;2023-09-19T03:28:08;24.17;;;13.63;;
73585;SDS011;61865;50.232;18.614;2023-09-19T03:30:30;17.70;;;13.27;;
73585;SDS011;61865;50.232;18.614;2023-09-19T03:32:53;18.65;;;14.23;;
73585;SDS011;61865;50.232;18.614;2023-09-19T03:35:16;18.02;;;13.63;;
73585;SDS011;61865;50.232;18.614;2023-09-19T03:37:38;19.17;;;14.23;;
73585;SDS011;61865;50.232;18.614;2023-09-19T03:40:01;20.13;;;12.23;;
73585;SDS011;61865;50.232;18.614;2023-09-19T03:42:25;18.00;;;13.60;;
73585;SDS011;61865;50.232;18.614;2023-09-19T03:44:48;16.25;;;13.63;;
73585;SDS011;61865;50.232;18.614;2023-09-19T03:47:12;17.98;;;13.70;;
73585;SDS011;61865;50.232;18.614;2023-09-19T03:49:34;19.27;;;12.32;;
73585;SDS011;61865;50.232;18.614;2023-09-19T03:51:56;18.13;;;13.40;;
73585;SDS011;61865;50.232;18.614;2023-09-19T03:54:19;20.75;;;12.48;;
73585;SDS011;61865;50.232;18.614;2023-09-19T03:56:41;19.90;;;12.63;;
73585;SDS011;61865;50.232;18.614;2023-09-19T03:59:04;16.88;;;13.00;;
73585;SDS011;61865;50.232;18.614;2023-09-19T04:01:30;23.05;;;13.80;;
73585;SDS011;61865;50.232;18.614;2023-09-19T04:03:53;18.20;;;12.48;;
73585;SDS011;61865;50.232;18.614;2023-09-19T04:06:16;20.70;;;13.70;;
73585;SDS011;61865;50.232;18.614;2023-09-19T04:08:38;18.60;;;13.18;;
73585;SDS011;61865;50.232;18.614;2023-09-19T04:11:00;19.80;;;13.60;;
73585;SDS011;61865;50.232;18.614;2023-09-19T04:13:23;21.08;;;13.90;;
73585;SDS011;61865;50.232;18.614;2023-09-19T04:15:45;18.05;;;13.30;;
73585;SDS011;61865;50.232;18.614;2023-09-19T04:18:09;20.75;;;13.05;;
73585;SDS011;61865;50.232;18.614;2023-09-19T04:20:31;18.45;;;13.52;;
73585;SDS011;61865;50.232;18.614;2023-09-19T04:22:53;17.65;;;14.50;;
73585;SDS011;61865;50.232;18.614;2023-09-19T04:25:16;17.30;;;13.60;;
73585;SDS011;61865;50.232;18.614;2023-09-19T04:27:38;18.30;;;12.40;;
73585;SDS011;61865;50.232;18.614;2023-09-19T04:30:01;20.63;;;13.48;;
73585;SDS011;61865;50.232;18.614;2023-09-19T04:32:30;27.40;;;14.68;;
73585;SDS011;61865;50.232;18.614;2023-09-19T04:34:54;20.77;;;12.82;;
73585;SDS011;61865;50.232;18.614;2023-09-19T04:37:19;15.70;;;12.65;;
73585;SDS011;61865;50.232;18.614;2023-09-19T04:39:42;18.80;;;14.60;;
73585;SDS011;61865;50.232;18.614;2023-09-19T04:42:05;23.58;;;18.08;;
73585;SDS011;61865;50.232;18.614;2023-09-19T04:44:28;23.95;;;16.55;;
73585;SDS011;61865;50.232;18.614;2023-09-19T04:46:50;24.52;;;17.00;;
73585;SDS011;61865;50.232;18.614;2023-09-19T04:49:12;25.38;;;15.90;;
73585;SDS011;61865;50.232;18.614;2023-09-19T04:51:36;23.15;;;16.00;;
73585;SDS011;61865;50.232;18.614;2023-09-19T04:53:58;20.73;;;16.27;;
73585;SDS011;61865;50.232;18.614;2023-09-19T04:56:21;24.42;;;16.75;;
73585;SDS011;61865;50.232;18.614;2023-09-19T04:58:47;26.20;;;16.73;;
73585;SDS011;61865;50.232;18.614;2023-09-19T05:01:09;20.48;;;16.42;;
73585;SDS011;61865;50.232;18.614;2023-09-19T05:03:32;22.30;;;16.33;;
73585;SDS011;61865;50.232;18.614;2023-09-19T05:05:55;24.58;;;17.02;;
73585;SDS011;61865;50.232;18.614;2023-09-19T05:08:18;21.48;;;15.93;;
73585;SDS011;61865;50.232;18.614;2023-09-19T05:10:44;26.73;;;17.27;;
73585;SDS011;61865;50.232;18.614;2023-09-19T05:13:06;25.95;;;16.42;;
73585;SDS011;61865;50.232;18.614;2023-09-19T05:15:29;23.50;;;17.75;;
73585;SDS011;61865;50.232;18.614;2023-09-19T05:17:51;25.15;;;16.92;;
73585;SDS011;61865;50.232;18.614;2023-09-19T05:20:15;23.85;;;17.02;;
73585;SDS011;61865;50.232;18.614;2023-09-19T05:22:44;21.00;;;14.93;;
73585;SDS011;61865;50.232;18.614;2023-09-19T05:25:08;20.23;;;14.95;;
73585;SDS011;61865;50.232;18.614;2023-09-19T05:27:31;18.90;;;13.60;;
73585;SDS011;61865;50.232;18.614;2023-09-19T05:29:53;24.42;;;14.70;;
73585;SDS011;61865;50.232;18.614;2023-09-19T05:32:16;24.20;;;13.88;;
73585;SDS011;61865;50.232;18.614;2023-09-19T05:34:40;21.58;;;13.48;;
73585;SDS011;61865;50.232;18.614;2023-09-19T05:37:02;20.38;;;13.27;;
73585;SDS011;61865;50.232;18.614;2023-09-19T05:39:25;25.23;;;13.25;;
73585;SDS011;61865;50.232;18.614;2023-09-19T05:41:48;20.45;;;13.77;;
73585;SDS011;61865;50.232;18.614;2023-09-19T05:44:11;21.50;;;13.30;;
73585;SDS011;61865;50.232;18.614;2023-09-19T05:46:34;20.17;;;13.05;;
73585;SDS011;61865;50.232;18.614;2023-09-19T05:48:56;21.40;;;12.23;;
73585;SDS011;61865;50.232;18.614;2023-09-19T05:51:19;13.95;;;10.75;;
73585;SDS011;61865;50.232;18.614;2023-09-19T05:53:42;15.52;;;11.10;;
73585;SDS011;61865;50.232;18.614;2023-09-19T05:56:04;17.33;;;10.07;;
73585;SDS011;61865;50.232;18.614;2023-09-19T05:58:31;19.63;;;10.38;;
73585;SDS011;61865;50.232;18.614;2023-09-19T06:00:54;15.25;;;9.27;;
73585;SDS011;61865;50.232;18.614;2023-09-19T06:03:17;10.45;;;8.30;;
73585;SDS011;61865;50.232;18.614;2023-09-19T06:05:40;10.93;;;7.22;;
73585;SDS011;61865;50.232;18.614;2023-09-19T06:08:03;14.07;;;7.47;;
73585;SDS011;61865;50.232;18.614;2023-09-19T06:10:27;10.82;;;6.63;;
73585;SDS011;61865;50.232;18.614;2023-09-19T06:12:52;12.15;;;6.95;;
73585;SDS011;61865;50.232;18.614;2023-09-19T06:15:19;8.85;;;6.53;;
73585;SDS011;61865;50.232;18.614;2023-09-19T06:17:45;16.42;;;7.00;;
73585;SDS011;61865;50.232;18.614;2023-09-19T06:20:08;9.75;;;6.22;;
73585;SDS011;61865;50.232;18.614;2023-09-19T06:22:34;9.85;;;6.72;;
73585;SDS011;61865;50.232;18.614;2023-09-19T06:24:57;11.40;;;6.55;;
73585;SDS011;61865;50.232;18.614;2023-09-19T06:27:19;18.10;;;6.47;;
73585;SDS011;61865;50.232;18.614;2023-09-19T06:29:42;10.52;;;6.10;;
73585;SDS011;61865;50.232;18.614;2023-09-19T06:32:08;14.73;;;7.38;;
73585;SDS011;61865;50.232;18.614;2023-09-19T06:34:30;12.20;;;6.43;;
73585;SDS011;61865;50.232;18.614;2023-09-19T06:36:53;9.13;;;6.47;;
73585;SDS011;61865;50.232;18.614;2023-09-19T06:39:15;10.50;;;7.10;;
73585;SDS011;61865;50.232;18.614;2023-09-19T06:41:38;9.50;;;6.57;;
73585;SDS011;61865;50.232;18.614;2023-09-19T06:44:01;13.13;;;6.93;;
73585;SDS011;61865;50.232;18.614;2023-09-19T06:46:24;10.30;;;6.55;;
73585;SDS011;61865;50.232;18.614;2023-09-19T06:48:47;10.98;;;6.53;;
73585;SDS011;61865;50.232;18.614;2023-09-19T06:51:10;12.25;;;6.45;;
73585;SDS011;61865;50.232;18.614;2023-09-19T06:53:35;9.13;;;6.95;;
73585;SDS011;61865;50.232;18.614;2023-09-19T06:55:58;14.65;;;7.00;;
73585;SDS011;61865;50.232;18.614;2023-09-19T06:58:20;10.45;;;6.22;;
73585;SDS011;61865;50.232;18.614;2023-09-19T07:00:43;14.45;;;6.63;;
73585;SDS011;61865;50.232;18.614;2023-09-19T07:03:06;12.73;;;5.97;;
73585;SDS011;61865;50.232;18.614;2023-09-19T07:05:33;10.93;;;6.07;;
73585;SDS011;61865;50.232;18.614;2023-09-19T07:07:57;9.90;;;6.15;;
73585;SDS011;61865;50.232;18.614;2023-09-19T07:10:19;15.05;;;5.80;;
73585;SDS011;61865;50.232;18.614;2023-09-19T07:12:44;9.98;;;5.35;;
73585;SDS011;61865;50.232;18.614;2023-09-19T07:15:06;9.77;;;5.82;;
73585;SDS011;61865;50.232;18.614;2023-09-19T07:17:29;20.30;;;5.82;;
73585;SDS011;61865;50.232;18.614;2023-09-19T07:19:53;8.85;;;5.22;;
73585;SDS011;61865;50.232;18.614;2023-09-19T07:22:16;10.88;;;6.25;;
73585;SDS011;61865;50.232;18.614;2023-09-19T07:24:39;9.63;;;5.82;;
73585;SDS011;61865;50.232;18.614;2023-09-19T07:27:01;12.52;;;5.20;;
73585;SDS011;61865;50.232;18.614;2023-09-19T07:29:25;10.90;;;5.40;;
73585;SDS011;61865;50.232;18.614;2023-09-19T07:31:47;10.90;;;5.53;;
73585;SDS011;61865;50.232;18.614;2023-09-19T07:34:10;8.23;;;5.10;;
73585;SDS011;61865;50.232;18.614;2023-09-19T07:36:34;11.07;;;5.70;;
73585;SDS011;61865;50.232;18.614;2023-09-19T07:38:59;9.48;;;5.05;;
73585;SDS011;61865;50.232;18.614;2023-09-19T07:41:21;9.70;;;5.03;;
73585;SDS011;61865;50.232;18.614;2023-09-19T07:43:43;6.85;;;4.80;;
73585;SDS011;61865;50.232;18.614;2023-09-19T07:46:06;9.38;;;5.55;;
73585;SDS011;61865;50.232;18.614;2023-09-19T07:48:28;9.48;;;5.88;;
73585;SDS011;61865;50.232;18.614;2023-09-19T07:50:51;14.73;;;5.75;;
73585;SDS011;61865;50.232;18.614;2023-09-19T07:53:13;7.30;;;5.43;;
73585;SDS011;61865;50.232;18.614;2023-09-19T07:55:39;9.30;;;5.97;;
73585;SDS011;61865;50.232;18.614;2023-09-19T07:58:02;10.82;;;6.47;;
73585;SDS011;61865;50.232;18.614;2023-09-19T08:00:26;9.32;;;5.50;;
73585;SDS011;61865;50.232;18.614;2023-09-19T08:02:48;9.60;;;5.22;;
73585;SDS011;61865;50.232;18.614;2023-09-19T08:05:12;9.23;;;5.07;;
73585;SDS011;61865;50.232;18.614;2023-09-19T08:07:36;9.82;;;5.60;;
73585;SDS011;61865;50.232;18.614;2023-09-19T08:10:01;7.82;;;4.93;;
73585;SDS011;61865;50.232;18.614;2023-09-19T08:12:25;9.38;;;4.82;;
73585;SDS011;61865;50.232;18.614;2023-09-19T08:14:47;6.75;;;4.80;;
73585;SDS011;61865;50.232;18.614;2023-09-19T08:17:13;8.48;;;4.50;;
73585;SDS011;61865;50.232;18.614;2023-09-19T08:19:35;7.82;;;4.32;;
73585;SDS011;61865;50.232;18.614;2023-09-19T08:22:02;9.60;;;4.50;;
73585;SDS011;61865;50.232;18.614;2023-09-19T08:24:24;8.93;;;4.30;;
73585;SDS011;61865;50.232;18.614;2023-09-19T08:26:48;7.10;;;4.78;;
73585;SDS011;61865;50.232;18.614;2023-09-19T08:29:12;9.52;;;4.57;;
73585;SDS011;61865;50.232;18.614;2023-09-19T08:31:35;6.25;;;4.07;;
73585;SDS011;61865;50.232;18.614;2023-09-19T08:33:57;9.25;;;5.03;;
73585;SDS011;61865;50.232;18.614;2023-09-19T08:36:20;6.57;;;4.05;;
73585;SDS011;61865;50.232;18.614;2023-09-19T08:38:43;10.90;;;4.40;;
73585;SDS011;61865;50.232;18.614;2023-09-19T08:41:05;6.07;;;4.00;;
73585;SDS011;61865;50.232;18.614;2023-09-19T08:43:28;9.98;;;3.97;;
73585;SDS011;61865;50.232;18.614;2023-09-19T08:45:52;8.93;;;4.03;;
73585;SDS011;61865;50.232;18.614;2023-09-19T08:48:19;5.38;;;3.42;;
73585;SDS011;61865;50.232;18.614;2023-09-19T08:50:43;7.50;;;3.45;;
73585;SDS011;61865;50.232;18.614;2023-09-19T08:53:11;6.25;;;3.13;;
73585;SDS011;61865;50.232;18.614;2023-09-19T08:55:34;7.85;;;3.03;;
73585;SDS011;61865;50.232;18.614;2023-09-19T08:57:59;9.35;;;3.58;;
73585;SDS011;61865;50.232;18.614;2023-09-19T09:00:22;6.18;;;3.17;;
73585;SDS011;61865;50.232;18.614;2023-09-19T09:02:49;7.50;;;3.58;;
73585;SDS011;61865;50.232;18.614;2023-09-19T09:05:12;4.45;;;2.70;;
73585;SDS011;61865;50.232;18.614;2023-09-19T09:07:36;8.48;;;3.00;;
73585;SDS011;61865;50.232;18.614;2023-09-19T09:09:59;7.47;;;2.92;;
73585;SDS011;61865;50.232;18.614;2023-09-19T09:12:25;8.50;;;3.20;;
73585;SDS011;61865;50.232;18.614;2023-09-19T09:14:48;7.47;;;3.38;;
73585;SDS011;61865;50.232;18.614;2023-09-19T09:17:12;6.20;;;3.28;;
73585;SDS011;61865;50.232;18.614;2023-09-19T09:19:36;6.03;;;3.08;;
73585;SDS011;61865;50.232;18.614;2023-09-19T09:22:05;6.22;;;3.08;;
73585;SDS011;61865;50.232;18.614;2023-09-19T09:24:28;6.10;;;3.20;;
73585;SDS011;61865;50.232;18.614;2023-09-19T09:26:53;3.85;;;2.75;;
73585;SDS011;61865;50.232;18.614;2023-09-19T09:29:17;5.88;;;3.47;;
73585;SDS011;61865;50.232;18.614;2023-09-19T09:32:00;6.80;;;3.47;;
73585;SDS011;61865;50.232;18.614;2023-09-19T09:34:39;4.20;;;3.00;;
73585;SDS011;61865;50.232;18.614;2023-09-19T09:37:02;6.40;;;3.33;;
73585;SDS011;61865;50.232;18.614;2023-09-19T09:39:29;8.25;;;3.65;;
73585;SDS011;61865;50.232;18.614;2023-09-19T09:41:52;5.68;;;3.70;;
73585;SDS011;61865;50.232;18.614;2023-09-19T09:44:15;8.77;;;3.63;;
73585;SDS011;61865;50.232;18.614;2023-09-19T09:46:41;8.02;;;3.80;;
73585;SDS011;61865;50.232;18.614;2023-09-19T09:49:41;6.82;;;3.40;;
73585;SDS011;61865;50.232;18.614;2023-09-19T09:52:14;9.20;;;4.05;;
73585;SDS011;61865;50.232;18.614;2023-09-19T09:54:38;5.68;;;3.60;;
73585;SDS011;61865;50.232;18.614;2023-09-19T09:57:05;5.43;;;3.65;;
73585;SDS011;61865;50.232;18.614;2023-09-19T09:59:47;10.25;;;3.85;;
73585;SDS011;61865;50.232;18.614;2023-09-19T10:02:10;7.25;;;3.65;;
73585;SDS011;61865;50.232;18.614;2023-09-19T10:04:34;8.70;;;3.75;;
73585;SDS011;61865;50.232;18.614;2023-09-19T10:07:05;8.82;;;4.25;;
73585;SDS011;61865;50.232;18.614;2023-09-19T10:09:44;7.07;;;3.95;;
73585;SDS011;61865;50.232;18.614;2023-09-19T10:12:07;6.55;;;3.67;;
73585;SDS011;61865;50.232;18.614;2023-09-19T10:14:33;7.72;;;4.10;;
73585;SDS011;61865;50.232;18.614;2023-09-19T10:16:56;6.78;;;4.07;;
73585;SDS011;61865;50.232;18.614;2023-09-19T10:19:24;8.80;;;4.20;;
73585;SDS011;61865;50.232;18.614;2023-09-19T10:21:53;9.98;;;4.03;;
73585;SDS011;61865;50.232;18.614;2023-09-19T10:24:19;6.75;;;4.30;;
73585;SDS011;61865;50.232;18.614;2023-09-19T10:26:44;8.70;;;4.55;;
73585;SDS011;61865;50.232;18.614;2023-09-19T10:29:11;6.15;;;4.00;;
73585;SDS011;61865;50.232;18.614;2023-09-19T10:31:37;9.50;;;4.05;;
73585;SDS011;61865;50.232;18.614;2023-09-19T10:34:12;7.43;;;3.40;;
73585;SDS011;61865;50.232;18.614;2023-09-19T10:36:37;6.40;;;3.63;;
73585;SDS011;61865;50.232;18.614;2023-09-19T10:39:03;7.10;;;4.13;;
73585;SDS011;61865;50.232;18.614;2023-09-19T10:41:30;7.82;;;4.50;;
73585;SDS011;61865;50.232;18.614;2023-09-19T10:44:02;9.50;;;4.07;;
73585;SDS011;61865;50.232;18.614;2023-09-19T10:46:26;10.80;;;4.55;;
73585;SDS011;61865;50.232;18.614;2023-09-19T10:48:50;6.40;;;4.75;;
73585;SDS011;61865;50.232;18.614;2023-09-19T10:53:19;5.35;;;3.90;;
73585;SDS011;61865;50.232;18.614;2023-09-19T10:54:05;5.90;;;4.18;;
73585;SDS011;61865;50.232;18.614;2023-09-19T10:56:42;8.82;;;4.70;;
73585;SDS011;61865;50.232;18.614;2023-09-19T10:59:07;6.93;;;4.40;;
73585;SDS011;61865;50.232;18.614;2023-09-19T11:01:40;10.15;;;4.70;;
73585;SDS011;61865;50.232;18.614;2023-09-19T11:06:42;7.03;;;4.30;;
73585;SDS011;61865;50.232;18.614;2023-09-19T11:09:04;7.78;;;4.50;;
73585;SDS011;61865;50.232;18.614;2023-09-19T11:11:46;6.38;;;3.80;;
73585;SDS011;61865;50.232;18.614;2023-09-19T11:14:14;7.40;;;3.70;;
73585;SDS011;61865;50.232;18.614;2023-09-19T11:16:36;7.88;;;3.40;;
73585;SDS011;61865;50.232;18.614;2023-09-19T11:19:02;7.35;;;3.33;;
73585;SDS011;61865;50.232;18.614;2023-09-19T11:27:08;6.35;;;3.05;;
73585;SDS011;61865;50.232;18.614;2023-09-19T11:29:32;7.38;;;3.45;;
73585;SDS011;61865;50.232;18.614;2023-09-19T11:31:56;4.65;;;3.03;;
73585;SDS011;61865;50.232;18.614;2023-09-19T11:34:42;9.15;;;3.50;;
73585;SDS011;61865;50.232;18.614;2023-09-19T11:39:50;5.20;;;3.20;;
73585;SDS011;61865;50.232;18.614;2023-09-19T11:42:43;5.55;;;2.83;;
73585;SDS011;61865;50.232;18.614;2023-09-19T11:45:06;6.70;;;2.83;;
73585;SDS011;61865;50.232;18.614;2023-09-19T11:47:28;6.75;;;3.50;;
73585;SDS011;61865;50.232;18.614;2023-09-19T11:49:56;5.85;;;3.25;;
73585;SDS011;61865;50.232;18.614;2023-09-19T11:52:22;5.50;;;3.40;;
73585;SDS011;61865;50.232;18.614;2023-09-19T11:54:45;7.25;;;3.83;;
73585;SDS011;61865;50.232;18.614;2023-09-19T11:57:11;7.38;;;3.60;;
73585;SDS011;61865;50.232;18.614;2023-09-19T11:59:43;6.65;;;3.50;;
73585;SDS011;61865;50.232;18.614;2023-09-19T12:02:08;4.97;;;2.80;;
73585;SDS011;61865;50.232;18.614;2023-09-19T12:04:33;7.13;;;3.30;;
73585;SDS011;61865;50.232;18.614;2023-09-19T12:06:57;7.75;;;3.25;;
73585;SDS011;61865;50.232;18.614;2023-09-19T12:09:20;6.03;;;2.92;;
73585;SDS011;61865;50.232;18.614;2023-09-19T12:11:45;4.75;;;2.90;;
73585;SDS011;61865;50.232;18.614;2023-09-19T12:14:09;7.10;;;3.83;;
73585;SDS011;61865;50.232;18.614;2023-09-19T12:16:33;6.65;;;2.60;;
73585;SDS011;61865;50.232;18.614;2023-09-19T12:18:56;3.85;;;2.45;;
73585;SDS011;61865;50.232;18.614;2023-09-19T12:21:22;6.20;;;2.92;;
73585;SDS011;61865;50.232;18.614;2023-09-19T12:23:56;5.90;;;2.70;;
73585;SDS011;61865;50.232;18.614;2023-09-19T12:26:18;4.95;;;2.50;;
73585;SDS011;61865;50.232;18.614;2023-09-19T12:28:40;5.68;;;2.90;;
73585;SDS011;61865;50.232;18.614;2023-09-19T12:31:06;5.18;;;2.55;;
73585;SDS011;61865;50.232;18.614;2023-09-19T12:33:33;6.47;;;3.10;;
73585;SDS011;61865;50.232;18.614;2023-09-19T12:35:56;6.40;;;2.65;;
73585;SDS011;61865;50.232;18.614;2023-09-19T12:38:25;6.22;;;2.70;;
73585;SDS011;61865;50.232;18.614;2023-09-19T12:40:49;4.73;;;2.63;;
73585;SDS011;61865;50.232;18.614;2023-09-19T12:43:15;6.07;;;2.60;;
73585;SDS011;61865;50.232;18.614;2023-09-19T12:45:38;3.88;;;2.40;;
73585;SDS011;61865;50.232;18.614;2023-09-19T12:48:20;5.00;;;2.38;;
73585;SDS011;61865;50.232;18.614;2023-09-19T12:51:03;4.15;;;2.53;;
73585;SDS011;61865;50.232;18.614;2023-09-19T12:53:27;7.90;;;2.65;;
73585;SDS011;61865;50.232;18.614;2023-09-19T12:55:57;5.05;;;2.60;;
73585;SDS011;61865;50.232;18.614;2023-09-19T12:58:20;6.10;;;2.78;;
73585;SDS011;61865;50.232;18.614;2023-09-19T13:00:43;5.20;;;2.65;;
73585;SDS011;61865;50.232;18.614;2023-09-19T13:03:12;6.25;;;2.70;;
73585;SDS011;61865;50.232;18.614;2023-09-19T13:05:48;4.30;;;2.60;;
73585;SDS011;61865;50.232;18.614;2023-09-19T13:08:18;6.20;;;2.63;;
73585;SDS011;61865;50.232;18.614;2023-09-19T13:13:24;16.55;;;3.75;;
73585;SDS011;61865;50.232;18.614;2023-09-19T13:15:51;214.25;;;10.85;;
73585;SDS011;61865;50.232;18.614;2023-09-19T13:18:13;16.88;;;3.80;;
73585;SDS011;61865;50.232;18.614;2023-09-19T13:20:38;29.08;;;3.92;;
73585;SDS011;61865;50.232;18.614;2023-09-19T13:23:25;8.30;;;3.38;;
73585;SDS011;61865;50.232;18.614;2023-09-19T13:25:49;9.23;;;4.47;;
73585;SDS011;61865;50.232;18.614;2023-09-19T13:28:11;9.35;;;5.30;;
73585;SDS011;61865;50.232;18.614;2023-09-19T13:30:33;13.52;;;6.22;;
73585;SDS011;61865;50.232;18.614;2023-09-19T13:33:05;16.10;;;7.57;;
73585;SDS011;61865;50.232;18.614;2023-09-19T13:35:28;20.33;;;8.75;;
73585;SDS011;61865;50.232;18.614;2023-09-19T13:37:50;20.75;;;9.02;;
73585;SDS011;61865;50.232;18.614;2023-09-19T13:40:13;14.40;;;10.23;;
73585;SDS011;61865;50.232;18.614;2023-09-19T13:42:37;20.50;;;10.77;;
73585;SDS011;61865;50.232;18.614;2023-09-19T13:44:59;23.60;;;12.05;;
73585;SDS011;61865;50.232;18.614;2023-09-19T13:47:22;20.33;;;10.65;;
73585;SDS011;61865;50.232;18.614;2023-09-19T13:49:46;17.15;;;10.38;;
73585;SDS011;61865;50.232;18.614;2023-09-19T13:52:10;11.73;;;7.78;;
73585;SDS011;61865;50.232;18.614;2023-09-19T13:54:33;10.48;;;6.90;;
73585;SDS011;61865;50.232;18.614;2023-09-19T13:56:55;11.98;;;5.60;;
73585;SDS011;61865;50.232;18.614;2023-09-19T13:59:19;8.95;;;4.47;;
73585;SDS011;61865;50.232;18.614;2023-09-19T14:01:43;6.10;;;3.97;;
73585;SDS011;61865;50.232;18.614;2023-09-19T14:04:06;6.53;;;3.90;;
73585;SDS011;61865;50.232;18.614;2023-09-19T14:06:30;6.13;;;3.55;;
73585;SDS011;61865;50.232;18.614;2023-09-19T14:08:53;8.45;;;3.50;;
73585;SDS011;61865;50.232;18.614;2023-09-19T14:11:15;6.00;;;3.95;;
73585;SDS011;61865;50.232;18.614;2023-09-19T14:13:37;7.72;;;3.50;;
73585;SDS011;61865;50.232;18.614;2023-09-19T14:16:04;7.85;;;3.85;;
73585;SDS011;61865;50.232;18.614;2023-09-19T14:18:26;9.57;;;3.80;;
73585;SDS011;61865;50.232;18.614;2023-09-19T14:20:48;10.05;;;4.75;;